sensor_id;sensor_type;location;lat;lon;timestamp;pressure;altitude;pressure_sealevel;temperature;humidity
7335;BME280;3708;42.632;23.378;2024-01-30T00:01:44;96253.19;;;-1.55;63.24
7335;BME280;3708;42.632;23.378;2024-01-30T00:04:09;96270.09;;;-1.43;63.01
7335;BME280;3708;42.632;23.378;2024-01-30T00:06:35;96172.78;;;-2.12;63.66
7335;BME280;3708;42.632;23.378;2024-01-30T00:09:00;96192.94;;;-1.96;63.99
7335;BME280;3708;42.632;23.378;2024-01-30T00:11:26;96169.31;;;-2.00;63.42
7335;BME280;3708;42.632;23.378;2024-01-30T00:13:52;96171.22;;;-2.00;63.54
7335;BME280;3708;42.632;23.378;2024-01-30T00:16:24;96268.16;;;-1.43;63.95
7335;BME280;3708;42.632;23.378;2024-01-30T00:18:51;96233.66;;;-1.58;63.31
7335;BME280;3708;42.632;23.378;2024-01-30T00:21:17;96237.75;;;-1.57;63.05
7335;BME280;3708;42.632;23.378;2024-01-30T00:23:43;96270.69;;;-1.39;62.99
7335;BME280;3708;42.632;23.378;2024-01-30T00:26:08;96173.34;;;-2.26;63.06
7335;BME280;3708;42.632;23.378;2024-01-30T00:28:34;96265.22;;;-1.54;63.00
7335;BME280;3708;42.632;23.378;2024-01-30T00:30:59;96187.19;;;-2.04;62.42
7335;BME280;3708;42.632;23.378;2024-01-30T00:33:25;96192.94;;;-1.96;62.84
7335;BME280;3708;42.632;23.378;2024-01-30T00:35:50;96201.72;;;-1.90;63.10
7335;BME280;3708;42.632;23.378;2024-01-30T00:38:16;96271.84;;;-1.40;62.50
7335;BME280;3708;42.632;23.378;2024-01-30T00:40:42;96277.88;;;-1.40;62.86
7335;BME280;3708;42.632;23.378;2024-01-30T00:43:07;96276.56;;;-1.35;62.38
7335;BME280;3708;42.632;23.378;2024-01-30T00:45:33;96270.78;;;-1.52;63.07
7335;BME280;3708;42.632;23.378;2024-01-30T00:48:02;96241.81;;;-1.83;62.95
7335;BME280;3708;42.632;23.378;2024-01-30T00:50:27;96278.13;;;-1.56;62.92
7335;BME280;3708;42.632;23.378;2024-01-30T00:52:53;96274.91;;;-1.60;63.09
7335;BME280;3708;42.632;23.378;2024-01-30T00:55:19;96182.09;;;-2.29;63.18
7335;BME280;3708;42.632;23.378;2024-01-30T00:57:44;96176.84;;;-2.29;62.56
7335;BME280;3708;42.632;23.378;2024-01-30T01:00:10;96188.03;;;-2.16;62.68
7335;BME280;3708;42.632;23.378;2024-01-30T01:02:36;96233.53;;;-2.03;63.14
7335;BME280;3708;42.632;23.378;2024-01-30T01:05:02;96270.41;;;-1.81;63.17
7335;BME280;3708;42.632;23.378;2024-01-30T01:07:28;96273.22;;;-1.85;62.66
7335;BME280;3708;42.632;23.378;2024-01-30T01:09:53;96269.09;;;-1.86;64.08
7335;BME280;3708;42.632;23.378;2024-01-30T01:12:19;96242.59;;;-2.13;63.52
7335;BME280;3708;42.632;23.378;2024-01-30T01:14:44;96271.28;;;-1.93;63.73
7335;BME280;3708;42.632;23.378;2024-01-30T01:17:10;96267.34;;;-1.89;63.65
7335;BME280;3708;42.632;23.378;2024-01-30T01:19:36;96260.13;;;-1.88;63.97
7335;BME280;3708;42.632;23.378;2024-01-30T01:22:01;96267.66;;;-1.78;62.82
7335;BME280;3708;42.632;23.378;2024-01-30T01:24:32;96273.69;;;-1.77;62.43
7335;BME280;3708;42.632;23.378;2024-01-30T01:26:58;96265.88;;;-1.81;63.44
7335;BME280;3708;42.632;23.378;2024-01-30T01:29:24;96184.88;;;-2.33;63.37
7335;BME280;3708;42.632;23.378;2024-01-30T01:31:56;96263.69;;;-1.82;63.31
7335;BME280;3708;42.632;23.378;2024-01-30T01:34:22;96274.41;;;-1.77;62.58
7335;BME280;3708;42.632;23.378;2024-01-30T01:36:51;96248.56;;;-1.82;62.72
7335;BME280;3708;42.632;23.378;2024-01-30T01:39:17;96220.66;;;-1.92;62.40
7335;BME280;3708;42.632;23.378;2024-01-30T01:41:43;96257.13;;;-1.69;62.51
7335;BME280;3708;42.632;23.378;2024-01-30T01:44:08;96267.16;;;-1.55;62.02
7335;BME280;3708;42.632;23.378;2024-01-30T01:46:35;96194.38;;;-2.04;61.71
7335;BME280;3708;42.632;23.378;2024-01-30T01:49:02;96275.38;;;-1.43;62.32
7335;BME280;3708;42.632;23.378;2024-01-30T01:51:31;96275.81;;;-1.45;61.81
7335;BME280;3708;42.632;23.378;2024-01-30T01:53:58;96240.34;;;-1.75;61.98
7335;BME280;3708;42.632;23.378;2024-01-30T01:56:26;96272.56;;;-1.58;62.25
7335;BME280;3708;42.632;23.378;2024-01-30T01:58:54;96136.59;;;-2.51;62.65
7335;BME280;3708;42.632;23.378;2024-01-30T02:01:21;96270.44;;;-1.72;62.79
7335;BME280;3708;42.632;23.378;2024-01-30T02:03:47;96194.38;;;-2.04;62.45
7335;BME280;3708;42.632;23.378;2024-01-30T02:06:16;96283.00;;;-1.55;62.55
7335;BME280;3708;42.632;23.378;2024-01-30T02:08:42;96280.06;;;-1.48;60.86
7335;BME280;3708;42.632;23.378;2024-01-30T02:11:08;96280.19;;;-1.60;61.80
7335;BME280;3708;42.632;23.378;2024-01-30T02:13:35;96246.97;;;-1.70;61.26
7335;BME280;3708;42.632;23.378;2024-01-30T02:16:01;96187.75;;;-2.09;61.65
7335;BME280;3708;42.632;23.378;2024-01-30T02:18:27;96278.16;;;-1.47;61.05
7335;BME280;3708;42.632;23.378;2024-01-30T02:20:53;96271.72;;;-1.46;61.29
7335;BME280;3708;42.632;23.378;2024-01-30T02:23:19;96270.66;;;-1.58;60.38
7335;BME280;3708;42.632;23.378;2024-01-30T02:25:45;96124.41;;;-2.58;60.58
7335;BME280;3708;42.632;23.378;2024-01-30T02:28:14;96276.13;;;-1.34;64.06
7335;BME280;3708;42.632;23.378;2024-01-30T02:30:40;96191.63;;;-1.83;60.22
7335;BME280;3708;42.632;23.378;2024-01-30T02:33:08;96141.88;;;-2.02;62.90
7335;BME280;3708;42.632;23.378;2024-01-30T02:35:33;96284.09;;;-0.98;60.82
7335;BME280;3708;42.632;23.378;2024-01-30T02:37:59;96260.44;;;-1.01;60.31
7335;BME280;3708;42.632;23.378;2024-01-30T02:40:25;96244.28;;;-1.03;64.64
7335;BME280;3708;42.632;23.378;2024-01-30T02:42:51;96264.41;;;-0.79;64.02
7335;BME280;3708;42.632;23.378;2024-01-30T02:45:16;96277.19;;;-0.77;59.35
7335;BME280;3708;42.632;23.378;2024-01-30T02:47:42;96194.50;;;-1.23;59.03
7335;BME280;3708;42.632;23.378;2024-01-30T02:50:09;96283.19;;;-0.67;61.19
7335;BME280;3708;42.632;23.378;2024-01-30T02:52:35;96276.16;;;-0.52;59.59
7335;BME280;3708;42.632;23.378;2024-01-30T02:55:01;96219.31;;;-0.84;58.15
7335;BME280;3708;42.632;23.378;2024-01-30T02:57:28;96270.53;;;-0.45;60.73
7335;BME280;3708;42.632;23.378;2024-01-30T02:59:53;96190.38;;;-1.42;58.06
7335;BME280;3708;42.632;23.378;2024-01-30T03:02:19;96238.53;;;-1.02;59.65
7335;BME280;3708;42.632;23.378;2024-01-30T03:04:45;96265.44;;;-0.85;61.45
7335;BME280;3708;42.632;23.378;2024-01-30T03:07:11;96187.00;;;-1.42;58.19
7335;BME280;3708;42.632;23.378;2024-01-30T03:09:37;96250.44;;;-1.06;58.77
7335;BME280;3708;42.632;23.378;2024-01-30T03:12:03;96179.22;;;-1.64;59.37
7335;BME280;3708;42.632;23.378;2024-01-30T03:14:31;96235.31;;;-1.33;58.55
7335;BME280;3708;42.632;23.378;2024-01-30T03:16:57;96267.22;;;-0.91;59.87
7335;BME280;3708;42.632;23.378;2024-01-30T03:19:23;96239.00;;;-1.03;58.69
7335;BME280;3708;42.632;23.378;2024-01-30T03:21:48;96206.53;;;-1.31;59.48
7335;BME280;3708;42.632;23.378;2024-01-30T03:24:14;96277.91;;;-0.86;58.70
7335;BME280;3708;42.632;23.378;2024-01-30T03:26:39;96268.66;;;-0.90;58.17
7335;BME280;3708;42.632;23.378;2024-01-30T03:29:05;96238.53;;;-1.11;58.73
7335;BME280;3708;42.632;23.378;2024-01-30T03:31:30;96136.75;;;-1.97;58.80
7335;BME280;3708;42.632;23.378;2024-01-30T03:33:56;96208.88;;;-1.42;58.80
7335;BME280;3708;42.632;23.378;2024-01-30T03:36:21;96258.81;;;-1.08;59.13
7335;BME280;3708;42.632;23.378;2024-01-30T03:38:47;96258.81;;;-1.08;59.32
7335;BME280;3708;42.632;23.378;2024-01-30T03:41:13;96098.03;;;-2.00;59.47
7335;BME280;3708;42.632;23.378;2024-01-30T03:43:38;96246.06;;;-1.09;57.80
7335;BME280;3708;42.632;23.378;2024-01-30T03:46:04;96163.19;;;-1.70;58.27
7335;BME280;3708;42.632;23.378;2024-01-30T03:48:29;96245.59;;;-1.08;58.87
7335;BME280;3708;42.632;23.378;2024-01-30T03:50:55;96231.63;;;-0.90;58.81
7335;BME280;3708;42.632;23.378;2024-01-30T03:53:21;96258.50;;;-0.46;60.46
7335;BME280;3708;42.632;23.378;2024-01-30T03:55:47;96256.84;;;-0.35;57.75
7335;BME280;3708;42.632;23.378;2024-01-30T03:58:12;96253.03;;;-0.43;56.95
7335;BME280;3708;42.632;23.378;2024-01-30T04:00:40;96162.78;;;-1.23;55.66
7335;BME280;3708;42.632;23.378;2024-01-30T04:03:06;96142.66;;;-1.48;57.46
7335;BME280;3708;42.632;23.378;2024-01-30T04:05:32;96246.47;;;-0.84;56.90
7335;BME280;3708;42.632;23.378;2024-01-30T04:07:58;96111.56;;;-1.80;57.10
7335;BME280;3708;42.632;23.378;2024-01-30T04:10:24;96245.03;;;-0.85;56.12
7335;BME280;3708;42.632;23.378;2024-01-30T04:12:50;96062.41;;;-2.04;56.15
7335;BME280;3708;42.632;23.378;2024-01-30T04:15:17;96247.66;;;-0.66;56.88
7335;BME280;3708;42.632;23.378;2024-01-30T04:17:43;96235.13;;;-0.57;55.88
7335;BME280;3708;42.632;23.378;2024-01-30T04:20:14;96245.56;;;-0.53;54.97
7335;BME280;3708;42.632;23.378;2024-01-30T04:22:42;96249.06;;;-0.47;55.80
7335;BME280;3708;42.632;23.378;2024-01-30T04:25:07;96251.41;;;-0.40;55.20
7335;BME280;3708;42.632;23.378;2024-01-30T04:27:32;96136.94;;;-1.19;53.80
7335;BME280;3708;42.632;23.378;2024-01-30T04:29:58;96254.25;;;-0.62;54.73
7335;BME280;3708;42.632;23.378;2024-01-30T04:32:24;96156.47;;;-1.16;55.23
7335;BME280;3708;42.632;23.378;2024-01-30T04:34:49;96245.00;;;-0.66;52.56
7335;BME280;3708;42.632;23.378;2024-01-30T04:37:15;96255.69;;;-0.52;52.97
7335;BME280;3708;42.632;23.378;2024-01-30T04:39:40;96243.53;;;-0.86;54.35
7335;BME280;3708;42.632;23.378;2024-01-30T04:42:06;96095.72;;;-1.71;54.81
7335;BME280;3708;42.632;23.378;2024-01-30T04:44:31;96259.06;;;-0.51;54.07
7335;BME280;3708;42.632;23.378;2024-01-30T04:46:57;96193.19;;;-1.36;54.75
7335;BME280;3708;42.632;23.378;2024-01-30T04:49:26;96203.75;;;-1.09;55.24
7335;BME280;3708;42.632;23.378;2024-01-30T04:51:52;96172.47;;;-1.38;54.24
7335;BME280;3708;42.632;23.378;2024-01-30T04:54:18;96154.53;;;-1.61;53.87
7335;BME280;3708;42.632;23.378;2024-01-30T04:56:43;96276.31;;;-0.74;54.34
7335;BME280;3708;42.632;23.378;2024-01-30T04:59:09;96221.22;;;-1.03;53.99
7335;BME280;3708;42.632;23.378;2024-01-30T05:01:34;96167.34;;;-1.41;52.74
7335;BME280;3708;42.632;23.378;2024-01-30T05:04:00;96278.81;;;-0.70;54.91
7335;BME280;3708;42.632;23.378;2024-01-30T05:06:27;96278.81;;;-0.70;53.82
7335;BME280;3708;42.632;23.378;2024-01-30T05:08:53;96283.06;;;-0.73;54.07
7335;BME280;3708;42.632;23.378;2024-01-30T05:11:19;96284.25;;;-0.74;54.36
7335;BME280;3708;42.632;23.378;2024-01-30T05:13:44;96204.03;;;-1.43;54.46
7335;BME280;3708;42.632;23.378;2024-01-30T05:16:10;96205.19;;;-1.45;54.77
7335;BME280;3708;42.632;23.378;2024-01-30T05:18:35;96235.91;;;-1.29;54.80
7335;BME280;3708;42.632;23.378;2024-01-30T05:21:02;96197.41;;;-1.57;55.70
7335;BME280;3708;42.632;23.378;2024-01-30T05:23:28;96215.31;;;-1.43;55.59
7335;BME280;3708;42.632;23.378;2024-01-30T05:25:53;96250.44;;;-1.24;56.39
7335;BME280;3708;42.632;23.378;2024-01-30T05:28:19;96195.19;;;-1.50;55.47
7335;BME280;3708;42.632;23.378;2024-01-30T05:30:44;96216.97;;;-1.36;56.44
7335;BME280;3708;42.632;23.378;2024-01-30T05:33:10;96218.88;;;-1.37;55.56
7335;BME280;3708;42.632;23.378;2024-01-30T05:35:37;96280.28;;;-0.79;55.67
7335;BME280;3708;42.632;23.378;2024-01-30T05:38:03;96200.50;;;-1.31;55.72
7335;BME280;3708;42.632;23.378;2024-01-30T05:40:30;96297.75;;;-0.72;55.97
7335;BME280;3708;42.632;23.378;2024-01-30T05:42:55;96261.75;;;-0.97;56.44
7335;BME280;3708;42.632;23.378;2024-01-30T05:45:21;96294.25;;;-0.78;56.95
7335;BME280;3708;42.632;23.378;2024-01-30T05:47:48;96306.44;;;-0.99;57.50
7335;BME280;3708;42.632;23.378;2024-01-30T05:50:14;96292.47;;;-1.08;57.64
7335;BME280;3708;42.632;23.378;2024-01-30T05:52:40;96193.72;;;-1.78;58.10
7335;BME280;3708;42.632;23.378;2024-01-30T05:55:06;96282.31;;;-1.28;57.51
7335;BME280;3708;42.632;23.378;2024-01-30T05:57:31;96265.41;;;-1.30;56.50
7335;BME280;3708;42.632;23.378;2024-01-30T05:59:57;96220.69;;;-1.83;56.23
7335;BME280;3708;42.632;23.378;2024-01-30T06:02:22;96284.16;;;-1.56;57.37
7335;BME280;3708;42.632;23.378;2024-01-30T06:04:48;96297.13;;;-1.39;56.56
7335;BME280;3708;42.632;23.378;2024-01-30T06:07:13;96209.94;;;-1.88;57.20
7335;BME280;3708;42.632;23.378;2024-01-30T06:09:39;96188.06;;;-2.07;58.08
7335;BME280;3708;42.632;23.378;2024-01-30T06:12:06;96182.53;;;-2.00;59.87
7335;BME280;3708;42.632;23.378;2024-01-30T06:14:32;96187.81;;;-1.91;60.59
7335;BME280;3708;42.632;23.378;2024-01-30T06:16:58;96295.81;;;-1.26;59.11
7335;BME280;3708;42.632;23.378;2024-01-30T06:19:24;96299.22;;;-1.25;57.81
7335;BME280;3708;42.632;23.378;2024-01-30T06:21:50;96301.56;;;-1.18;58.61
7335;BME280;3708;42.632;23.378;2024-01-30T06:24:16;96216.16;;;-1.73;61.21
7335;BME280;3708;42.632;23.378;2024-01-30T06:26:42;96217.63;;;-1.72;58.92
7335;BME280;3708;42.632;23.378;2024-01-30T06:29:08;96192.25;;;-1.70;57.77
7335;BME280;3708;42.632;23.378;2024-01-30T06:31:40;96266.13;;;-1.48;57.15
7335;BME280;3708;42.632;23.378;2024-01-30T06:34:06;96235.53;;;-1.67;57.09
7335;BME280;3708;42.632;23.378;2024-01-30T06:36:32;96273.47;;;-1.34;56.16
7335;BME280;3708;42.632;23.378;2024-01-30T06:38:58;96290.81;;;-1.24;57.18
7335;BME280;3708;42.632;23.378;2024-01-30T06:41:24;96263.22;;;-1.41;57.12
7335;BME280;3708;42.632;23.378;2024-01-30T06:43:49;96294.34;;;-1.09;56.38
7335;BME280;3708;42.632;23.378;2024-01-30T06:46:15;96297.59;;;-1.14;57.32
7335;BME280;3708;42.632;23.378;2024-01-30T06:48:41;96291.13;;;-1.04;55.10
7335;BME280;3708;42.632;23.378;2024-01-30T06:51:09;96286.41;;;-1.18;55.77
7335;BME280;3708;42.632;23.378;2024-01-30T06:53:34;96291.59;;;-1.05;55.03
7335;BME280;3708;42.632;23.378;2024-01-30T06:56:00;96263.53;;;-1.12;56.30
7335;BME280;3708;42.632;23.378;2024-01-30T06:58:26;96229.16;;;-1.30;54.04
7335;BME280;3708;42.632;23.378;2024-01-30T07:00:52;96300.09;;;-1.19;53.77
7335;BME280;3708;42.632;23.378;2024-01-30T07:03:17;96310.53;;;-1.07;56.61
7335;BME280;3708;42.632;23.378;2024-01-30T07:05:43;96238.78;;;-1.54;54.29
7335;BME280;3708;42.632;23.378;2024-01-30T07:08:08;96309.94;;;-1.02;53.36
7335;BME280;3708;42.632;23.378;2024-01-30T07:10:34;96186.63;;;-1.90;53.44
7335;BME280;3708;42.632;23.378;2024-01-30T07:13:00;96304.66;;;-1.11;53.84
7335;BME280;3708;42.632;23.378;2024-01-30T07:15:26;96313.78;;;-1.03;53.64
7335;BME280;3708;42.632;23.378;2024-01-30T07:17:51;96293.22;;;-0.81;55.50
7335;BME280;3708;42.632;23.378;2024-01-30T07:20:17;96262.63;;;-1.09;52.88
7335;BME280;3708;42.632;23.378;2024-01-30T07:22:45;96285.44;;;-0.75;53.59
7335;BME280;3708;42.632;23.378;2024-01-30T07:25:11;96306.41;;;-0.44;53.23
7335;BME280;3708;42.632;23.378;2024-01-30T07:27:36;96311.41;;;-0.37;51.37
7335;BME280;3708;42.632;23.378;2024-01-30T07:30:02;96310.94;;;-0.27;52.38
7335;BME280;3708;42.632;23.378;2024-01-30T07:32:28;96305.44;;;0.04;51.51
7335;BME280;3708;42.632;23.378;2024-01-30T07:34:54;96290.03;;;0.26;51.82
7335;BME280;3708;42.632;23.378;2024-01-30T07:37:19;96287.44;;;0.50;50.90
7335;BME280;3708;42.632;23.378;2024-01-30T07:39:45;96306.84;;;0.56;49.48
7335;BME280;3708;42.632;23.378;2024-01-30T07:42:10;96163.56;;;-0.72;50.38
7335;BME280;3708;42.632;23.378;2024-01-30T07:44:36;96226.19;;;-0.18;49.73
7335;BME280;3708;42.632;23.378;2024-01-30T07:47:01;96307.19;;;0.07;49.15
7335;BME280;3708;42.632;23.378;2024-01-30T07:49:28;96272.00;;;0.16;49.39
7335;BME280;3708;42.632;23.378;2024-01-30T07:51:53;96205.31;;;-0.25;48.99
7335;BME280;3708;42.632;23.378;2024-01-30T07:54:19;96223.78;;;-0.39;49.95
7335;BME280;3708;42.632;23.378;2024-01-30T07:56:45;96208.16;;;-0.28;50.46
7335;BME280;3708;42.632;23.378;2024-01-30T07:59:11;96304.28;;;0.61;49.46
7335;BME280;3708;42.632;23.378;2024-01-30T08:01:37;96235.75;;;0.22;49.72
7335;BME280;3708;42.632;23.378;2024-01-30T08:04:02;96299.97;;;0.97;49.42
7335;BME280;3708;42.632;23.378;2024-01-30T08:06:28;96219.41;;;0.47;48.57
7335;BME280;3708;42.632;23.378;2024-01-30T08:08:53;96305.63;;;1.28;48.18
7335;BME280;3708;42.632;23.378;2024-01-30T08:11:22;96299.56;;;1.13;47.59
7335;BME280;3708;42.632;23.378;2024-01-30T08:13:52;96297.44;;;0.79;48.31
7335;BME280;3708;42.632;23.378;2024-01-30T08:16:17;96293.84;;;0.91;49.23
7335;BME280;3708;42.632;23.378;2024-01-30T08:18:43;96295.38;;;1.21;48.72
7335;BME280;3708;42.632;23.378;2024-01-30T08:21:09;96300.84;;;1.17;47.85
7335;BME280;3708;42.632;23.378;2024-01-30T08:23:34;96309.53;;;1.56;48.18
7335;BME280;3708;42.632;23.378;2024-01-30T08:26:00;96294.91;;;1.61;46.89
7335;BME280;3708;42.632;23.378;2024-01-30T08:28:26;96284.75;;;1.21;46.95
7335;BME280;3708;42.632;23.378;2024-01-30T08:30:52;96280.31;;;1.03;47.85
7335;BME280;3708;42.632;23.378;2024-01-30T08:33:17;96255.34;;;0.95;47.61
7335;BME280;3708;42.632;23.378;2024-01-30T08:35:43;96287.91;;;1.49;46.53
7335;BME280;3708;42.632;23.378;2024-01-30T08:38:08;96304.66;;;1.40;46.65
7335;BME280;3708;42.632;23.378;2024-01-30T08:40:34;96233.34;;;0.56;47.63
7335;BME280;3708;42.632;23.378;2024-01-30T08:43:00;96306.69;;;1.45;47.14
7335;BME280;3708;42.632;23.378;2024-01-30T08:45:26;96298.94;;;1.18;47.44
7335;BME280;3708;42.632;23.378;2024-01-30T08:47:51;96313.88;;;1.30;46.79
7335;BME280;3708;42.632;23.378;2024-01-30T08:50:17;96311.41;;;1.41;46.97
7335;BME280;3708;42.632;23.378;2024-01-30T08:52:43;96318.13;;;1.51;46.64
7335;BME280;3708;42.632;23.378;2024-01-30T08:55:08;96312.56;;;1.64;47.53
7335;BME280;3708;42.632;23.378;2024-01-30T08:57:34;96150.75;;;0.87;46.37
7335;BME280;3708;42.632;23.378;2024-01-30T09:00:00;96249.72;;;1.90;46.04
7335;BME280;3708;42.632;23.378;2024-01-30T09:02:27;96316.50;;;2.12;44.56
7335;BME280;3708;42.632;23.378;2024-01-30T09:04:53;96325.97;;;2.48;46.01
7335;BME280;3708;42.632;23.378;2024-01-30T09:07:18;96298.31;;;2.40;44.37
7335;BME280;3708;42.632;23.378;2024-01-30T09:09:44;96318.22;;;2.44;44.43
7335;BME280;3708;42.632;23.378;2024-01-30T09:12:10;96315.84;;;2.66;44.26
7335;BME280;3708;42.632;23.378;2024-01-30T09:14:39;96208.31;;;2.33;42.02
7335;BME280;3708;42.632;23.378;2024-01-30T09:17:05;96306.97;;;3.10;41.84
7335;BME280;3708;42.632;23.378;2024-01-30T09:19:31;96219.63;;;2.48;42.21
7335;BME280;3708;42.632;23.378;2024-01-30T09:21:56;96165.63;;;2.62;41.25
7335;BME280;3708;42.632;23.378;2024-01-30T09:24:22;96296.44;;;3.41;41.45
7335;BME280;3708;42.632;23.378;2024-01-30T09:26:47;96277.81;;;3.21;43.15
7335;BME280;3708;42.632;23.378;2024-01-30T09:29:13;96286.88;;;3.29;41.55
7335;BME280;3708;42.632;23.378;2024-01-30T09:31:39;96258.88;;;3.13;40.34
7335;BME280;3708;42.632;23.378;2024-01-30T09:34:04;96233.59;;;2.43;41.68
7335;BME280;3708;42.632;23.378;2024-01-30T09:36:31;96288.19;;;2.24;43.18
7335;BME280;3708;42.632;23.378;2024-01-30T09:38:57;96270.25;;;2.04;44.54
7335;BME280;3708;42.632;23.378;2024-01-30T09:41:24;96214.84;;;2.32;41.84
7335;BME280;3708;42.632;23.378;2024-01-30T09:43:50;96289.59;;;2.54;42.84
7335;BME280;3708;42.632;23.378;2024-01-30T09:46:17;96285.44;;;2.87;43.63
7335;BME280;3708;42.632;23.378;2024-01-30T09:48:48;96293.16;;;3.06;43.27
7335;BME280;3708;42.632;23.378;2024-01-30T09:51:15;96200.03;;;2.45;41.87
7335;BME280;3708;42.632;23.378;2024-01-30T09:53:42;96293.16;;;3.06;41.74
7335;BME280;3708;42.632;23.378;2024-01-30T09:56:08;96208.91;;;2.07;42.45
7335;BME280;3708;42.632;23.378;2024-01-30T09:58:34;96247.00;;;2.34;43.25
7335;BME280;3708;42.632;23.378;2024-01-30T10:00:59;96215.84;;;1.41;43.62
7335;BME280;3708;42.632;23.378;2024-01-30T10:03:25;96267.69;;;1.80;44.71
7335;BME280;3708;42.632;23.378;2024-01-30T10:05:52;96283.44;;;1.69;44.77
7335;BME280;3708;42.632;23.378;2024-01-30T10:08:20;96280.25;;;1.65;44.33
7335;BME280;3708;42.632;23.378;2024-01-30T10:10:47;96262.25;;;1.45;44.95
7335;BME280;3708;42.632;23.378;2024-01-30T10:13:13;96190.84;;;1.18;45.07
7335;BME280;3708;42.632;23.378;2024-01-30T10:15:38;96199.47;;;1.57;44.67
7335;BME280;3708;42.632;23.378;2024-01-30T10:18:04;96260.81;;;2.38;43.78
7335;BME280;3708;42.632;23.378;2024-01-30T10:20:32;96267.97;;;2.66;43.48
7335;BME280;3708;42.632;23.378;2024-01-30T10:22:58;96240.06;;;2.22;44.10
7335;BME280;3708;42.632;23.378;2024-01-30T10:25:25;96156.50;;;1.73;44.81
7335;BME280;3708;42.632;23.378;2024-01-30T10:27:54;96275.28;;;2.02;45.55
7335;BME280;3708;42.632;23.378;2024-01-30T10:30:21;96195.25;;;1.07;46.00
7335;BME280;3708;42.632;23.378;2024-01-30T10:32:47;96232.72;;;1.38;46.98
7335;BME280;3708;42.632;23.378;2024-01-30T10:35:12;96269.16;;;1.67;46.89
7335;BME280;3708;42.632;23.378;2024-01-30T10:37:38;96260.81;;;1.59;47.38
7335;BME280;3708;42.632;23.378;2024-01-30T10:40:04;96224.19;;;1.34;46.98
7335;BME280;3708;42.632;23.378;2024-01-30T10:42:32;96276.94;;;1.99;46.43
7335;BME280;3708;42.632;23.378;2024-01-30T10:45:10;96277.84;;;2.11;46.13
7335;BME280;3708;42.632;23.378;2024-01-30T10:47:43;96175.84;;;1.01;47.18
7335;BME280;3708;42.632;23.378;2024-01-30T10:50:13;96274.16;;;1.50;47.62
7335;BME280;3708;42.632;23.378;2024-01-30T10:52:41;96267.25;;;1.67;47.97
7335;BME280;3708;42.632;23.378;2024-01-30T10:55:07;96261.56;;;1.45;47.72
7335;BME280;3708;42.632;23.378;2024-01-30T10:57:37;96155.81;;;1.14;47.56
7335;BME280;3708;42.632;23.378;2024-01-30T11:00:10;96228.09;;;1.82;46.61
7335;BME280;3708;42.632;23.378;2024-01-30T11:02:39;96259.53;;;1.98;47.18
7335;BME280;3708;42.632;23.378;2024-01-30T11:05:06;96141.41;;;1.50;45.81
7335;BME280;3708;42.632;23.378;2024-01-30T11:07:31;96122.41;;;1.08;45.81
7335;BME280;3708;42.632;23.378;2024-01-30T11:12:23;96212.53;;;1.75;46.81
7335;BME280;3708;42.632;23.378;2024-01-30T11:15:01;96138.94;;;1.61;45.27
7335;BME280;3708;42.632;23.378;2024-01-30T11:17:28;96183.38;;;1.95;44.84
7335;BME280;3708;42.632;23.378;2024-01-30T11:19:54;96240.09;;;2.42;45.45
7335;BME280;3708;42.632;23.378;2024-01-30T11:22:22;96245.78;;;2.35;44.83
7335;BME280;3708;42.632;23.378;2024-01-30T11:24:47;96155.72;;;2.02;45.45
7335;BME280;3708;42.632;23.378;2024-01-30T11:27:15;96159.53;;;2.36;45.42
7335;BME280;3708;42.632;23.378;2024-01-30T11:29:40;96225.31;;;3.47;43.68
7335;BME280;3708;42.632;23.378;2024-01-30T11:32:06;96145.66;;;2.92;43.85
7335;BME280;3708;42.632;23.378;2024-01-30T11:34:32;96214.00;;;3.83;42.70
7335;BME280;3708;42.632;23.378;2024-01-30T11:37:03;96228.22;;;4.48;42.19
7335;BME280;3708;42.632;23.378;2024-01-30T11:39:29;96186.28;;;5.35;40.22
7335;BME280;3708;42.632;23.378;2024-01-30T11:41:55;96231.00;;;5.40;39.11
7335;BME280;3708;42.632;23.378;2024-01-30T11:44:21;96130.81;;;4.16;40.28
7335;BME280;3708;42.632;23.378;2024-01-30T11:46:51;96216.00;;;4.30;41.91
7335;BME280;3708;42.632;23.378;2024-01-30T11:49:17;96237.06;;;3.92;41.11
7335;BME280;3708;42.632;23.378;2024-01-30T11:51:45;96211.19;;;3.41;43.20
7335;BME280;3708;42.632;23.378;2024-01-30T11:54:11;96162.19;;;3.27;42.78
7335;BME280;3708;42.632;23.378;2024-01-30T11:56:37;96193.56;;;3.43;43.21
7335;BME280;3708;42.632;23.378;2024-01-30T11:59:04;96219.78;;;3.25;43.25
7335;BME280;3708;42.632;23.378;2024-01-30T12:01:29;96217.56;;;3.23;42.83
7335;BME280;3708;42.632;23.378;2024-01-30T12:03:55;96173.88;;;2.44;45.18
7335;BME280;3708;42.632;23.378;2024-01-30T12:06:23;96185.84;;;2.54;45.61
7335;BME280;3708;42.632;23.378;2024-01-30T12:09:03;96202.34;;;3.49;44.45
7335;BME280;3708;42.632;23.378;2024-01-30T12:11:46;96077.38;;;3.94;40.43
7335;BME280;3708;42.632;23.378;2024-01-30T12:14:12;96201.41;;;5.88;38.29
7335;BME280;3708;42.632;23.378;2024-01-30T12:16:38;96141.09;;;5.59;37.65
7335;BME280;3708;42.632;23.378;2024-01-30T12:19:03;96160.28;;;6.08;36.47
7335;BME280;3708;42.632;23.378;2024-01-30T12:21:29;96180.63;;;6.44;37.29
7335;BME280;3708;42.632;23.378;2024-01-30T12:23:59;96120.16;;;6.76;34.94
7335;BME280;3708;42.632;23.378;2024-01-30T12:26:25;96183.34;;;7.01;35.16
7335;BME280;3708;42.632;23.378;2024-01-30T12:28:54;96182.19;;;6.01;36.82
7335;BME280;3708;42.632;23.378;2024-01-30T12:31:32;96142.47;;;6.32;35.83
7335;BME280;3708;42.632;23.378;2024-01-30T12:33:59;96154.09;;;6.52;35.67
7335;BME280;3708;42.632;23.378;2024-01-30T12:36:25;96160.72;;;6.91;35.16
7335;BME280;3708;42.632;23.378;2024-01-30T12:38:51;96125.75;;;6.73;35.27
7335;BME280;3708;42.632;23.378;2024-01-30T12:41:17;96116.97;;;6.78;33.96
7335;BME280;3708;42.632;23.378;2024-01-30T12:43:43;96063.81;;;6.52;34.50
7335;BME280;3708;42.632;23.378;2024-01-30T12:46:09;96062.25;;;7.08;32.62
7335;BME280;3708;42.632;23.378;2024-01-30T12:48:34;96021.25;;;6.84;33.84
7335;BME280;3708;42.632;23.378;2024-01-30T12:51:00;96064.13;;;7.19;32.65
7335;BME280;3708;42.632;23.378;2024-01-30T12:53:26;96161.81;;;7.53;33.18
7335;BME280;3708;42.632;23.378;2024-01-30T12:55:51;96141.78;;;7.60;33.28
7335;BME280;3708;42.632;23.378;2024-01-30T12:58:18;96151.66;;;7.70;33.87
7335;BME280;3708;42.632;23.378;2024-01-30T13:00:44;96127.13;;;6.38;34.23
7335;BME280;3708;42.632;23.378;2024-01-30T13:03:10;96050.25;;;5.65;35.16
7335;BME280;3708;42.632;23.378;2024-01-30T13:05:36;96109.25;;;6.06;35.12
7335;BME280;3708;42.632;23.378;2024-01-30T13:08:01;96145.84;;;6.44;34.47
7335;BME280;3708;42.632;23.378;2024-01-30T13:10:27;96101.94;;;5.95;35.36
7335;BME280;3708;42.632;23.378;2024-01-30T13:12:53;96152.16;;;7.04;34.59